createdAt,value
2017-03-06T00:00:30.873Z,1016.14
2017-03-06T00:01:11.523Z,1016.12
2017-03-06T00:01:52.180Z,1016.14
2017-03-06T00:02:32.838Z,1016.16
2017-03-06T00:03:13.475Z,1016.14
2017-03-06T00:03:54.222Z,1016.11
2017-03-06T00:04:34.912Z,1016.14
2017-03-06T00:05:15.570Z,1016.15
2017-03-06T00:05:56.216Z,1016.19
2017-03-06T00:06:36.854Z,1016.17
2017-03-06T00:07:17.509Z,1016.2
2017-03-06T00:07:58.211Z,1016.16
2017-03-06T00:08:38.863Z,1016.2
2017-03-06T00:09:19.528Z,1016.17
2017-03-06T00:10:00.175Z,1016.19
2017-03-06T00:10:40.817Z,1016.17
2017-03-06T00:11:21.465Z,1016.21
2017-03-06T00:12:02.112Z,1016.21
2017-03-06T00:12:42.747Z,1016.19
2017-03-06T00:13:23.389Z,1016.14
2017-03-06T00:14:04.032Z,1016.17
2017-03-06T00:14:44.677Z,1016.16
2017-03-06T00:15:25.324Z,1016.17
2017-03-06T00:16:05.976Z,1016.18
2017-03-06T00:16:46.622Z,1016.16
2017-03-06T00:17:27.274Z,1016.17
2017-03-06T00:18:07.917Z,1016.16
2017-03-06T00:18:48.538Z,1016.19
2017-03-06T00:19:29.170Z,1016.18
2017-03-06T00:20:09.808Z,1016.18
2017-03-06T00:20:50.444Z,1016.19
2017-03-06T00:21:31.085Z,1016.19
2017-03-06T00:22:11.728Z,1016.19
2017-03-06T00:22:52.395Z,1016.22
2017-03-06T00:23:33.032Z,1016.21
2017-03-06T00:24:13.680Z,1016.21
2017-03-06T00:24:54.382Z,1016.23
2017-03-06T00:25:35.028Z,1016.2
2017-03-06T00:26:15.670Z,1016.24
2017-03-06T00:26:56.377Z,1016.26
2017-03-06T00:27:37.108Z,1016.24
2017-03-06T00:28:17.756Z,1016.23
2017-03-06T00:28:58.391Z,1016.25
2017-03-06T00:29:39.051Z,1016.19
2017-03-06T00:30:19.700Z,1016.19
2017-03-06T00:31:00.353Z,1016.22
2017-03-06T00:31:40.996Z,1016.22
2017-03-06T00:32:21.631Z,1016.21
2017-03-06T00:33:02.271Z,1016.18
2017-03-06T00:33:43.488Z,1016.17
2017-03-06T00:34:24.119Z,1016.2
2017-03-06T00:35:04.771Z,1016.19
2017-03-06T00:35:45.401Z,1016.17
2017-03-06T00:36:26.034Z,1016.21
2017-03-06T00:37:06.729Z,1016.19
2017-03-06T00:37:47.358Z,1016.19
2017-03-06T00:38:27.996Z,1016.22
2017-03-06T00:39:08.631Z,1016.21
2017-03-06T00:39:49.289Z,1016.18
2017-03-06T00:40:29.906Z,1016.2
2017-03-06T00:41:10.639Z,1016.18
2017-03-06T00:41:51.268Z,1016.23
2017-03-06T00:42:31.912Z,1016.21
2017-03-06T00:43:12.626Z,1016.2
2017-03-06T00:43:53.361Z,1016.21
2017-03-06T00:44:34.008Z,1016.19
2017-03-06T00:45:14.633Z,1016.23
2017-03-06T00:45:55.362Z,1016.2
2017-03-06T00:46:35.996Z,1016.21
2017-03-06T00:47:16.640Z,1016.22
2017-03-06T00:47:57.273Z,1016.21
2017-03-06T00:48:37.904Z,1016.18
2017-03-06T00:49:18.555Z,1016.19
2017-03-06T00:49:59.195Z,1016.21
2017-03-06T00:50:39.829Z,1016.22
2017-03-06T00:51:20.482Z,1016.23
2017-03-06T00:52:01.118Z,1016.22
2017-03-06T00:52:41.752Z,1016.19
2017-03-06T00:53:22.375Z,1016.17
2017-03-06T00:54:03.031Z,1016.17
2017-03-06T00:54:43.679Z,1016.16
2017-03-06T00:55:24.335Z,1016.2
2017-03-06T00:56:04.969Z,1016.2
2017-03-06T00:56:45.608Z,1016.21
2017-03-06T00:57:26.287Z,1016.2
2017-03-06T00:58:07.064Z,1016.17
2017-03-06T00:58:47.702Z,1016.18
2017-03-06T00:59:28.349Z,1016.16
2017-03-06T01:00:09.089Z,1016.16
2017-03-06T01:00:49.755Z,1016.18
2017-03-06T01:01:30.467Z,1016.15
2017-03-06T01:02:11.112Z,1016.17
2017-03-06T01:02:51.750Z,1016.18
2017-03-06T01:03:32.396Z,1016.19
2017-03-06T01:04:13.021Z,1016.2
2017-03-06T01:04:53.697Z,1016.15
2017-03-06T01:05:34.326Z,1016.16
2017-03-06T01:06:14.970Z,1016.21
2017-03-06T01:06:55.604Z,1016.17
2017-03-06T01:07:36.232Z,1016.18
2017-03-06T01:09:49.273Z,1016.17
2017-03-06T01:10:29.902Z,1016.18
2017-03-06T01:11:10.550Z,1016.22
2017-03-06T01:11:51.169Z,1016.24
2017-03-06T01:12:31.799Z,1016.25
2017-03-06T01:13:12.487Z,1016.26
2017-03-06T01:13:53.142Z,1016.23
2017-03-06T01:14:33.801Z,1016.23
2017-03-06T01:15:14.402Z,1016.23
2017-03-06T01:15:55.051Z,1016.24
2017-03-06T01:16:35.677Z,1016.23
2017-03-06T01:17:16.363Z,1016.2
2017-03-06T01:17:57.074Z,1016.18
2017-03-06T01:18:37.700Z,1016.21
2017-03-06T01:19:18.335Z,1016.15
2017-03-06T01:19:58.970Z,1016.21
2017-03-06T01:20:39.680Z,1016.14
2017-03-06T01:21:20.309Z,1016.19
2017-03-06T01:22:00.965Z,1016.17
2017-03-06T01:22:41.606Z,1016.14
2017-03-06T01:23:22.241Z,1016.16
2017-03-06T01:24:02.870Z,1016.15
2017-03-06T01:24:43.488Z,1016.14
2017-03-06T01:25:24.122Z,1016.14
2017-03-06T01:26:04.821Z,1016.12
2017-03-06T01:26:45.447Z,1016.13
2017-03-06T01:27:26.087Z,1016.18
2017-03-06T01:28:06.721Z,1016.13
2017-03-06T01:28:47.354Z,1016.17
2017-03-06T01:29:28.023Z,1016.17
2017-03-06T01:30:08.690Z,1016.15
2017-03-06T01:30:49.328Z,1016.13
2017-03-06T01:31:29.970Z,1016.13
2017-03-06T01:32:10.661Z,1016.17
2017-03-06T01:32:51.285Z,1016.17
2017-03-06T01:33:31.925Z,1016.15
2017-03-06T01:34:12.611Z,1016.15
2017-03-06T01:34:53.257Z,1016.14
2017-03-06T01:35:33.878Z,1016.14
2017-03-06T01:36:14.514Z,1016.13
2017-03-06T01:36:55.148Z,1016.12
2017-03-06T01:37:35.772Z,1016.11
2017-03-06T01:38:16.459Z,1016.15
2017-03-06T01:38:57.082Z,1016.13
2017-03-06T01:39:37.722Z,1016.13
2017-03-06T01:40:18.349Z,1016.14
2017-03-06T01:40:59.046Z,1016.13
2017-03-06T01:41:39.688Z,1016.12
2017-03-06T01:42:20.320Z,1016.13
2017-03-06T01:43:00.956Z,1016.11
2017-03-06T01:43:41.603Z,1016.13
2017-03-06T01:44:22.281Z,1016.1
2017-03-06T01:45:02.938Z,1016.14
2017-03-06T01:45:43.585Z,1016.12
2017-03-06T01:46:24.226Z,1016.12
2017-03-06T01:47:04.855Z,1016.12
2017-03-06T01:47:45.491Z,1016.14
2017-03-06T01:48:26.114Z,1016.12
2017-03-06T01:49:06.745Z,1016.15
2017-03-06T01:49:47.434Z,1016.17
2017-03-06T01:50:27.998Z,1016.16
2017-03-06T01:51:08.622Z,1016.12
2017-03-06T01:51:49.241Z,1016.16
2017-03-06T01:52:29.879Z,1016.09
2017-03-06T01:53:10.515Z,1016.11
2017-03-06T01:53:51.136Z,1016.12
2017-03-06T01:54:31.773Z,1016.13
2017-03-06T01:55:12.405Z,1016.1
2017-03-06T01:55:53.024Z,1016.08
2017-03-06T01:56:33.648Z,1016.09
2017-03-06T01:57:14.281Z,1016.06
2017-03-06T01:57:54.896Z,1016.02
2017-03-06T01:58:35.536Z,1016.06
2017-03-06T01:59:16.210Z,1016.04
2017-03-06T01:59:56.835Z,1016.03
2017-03-06T02:00:37.462Z,1016.01
2017-03-06T02:01:18.136Z,1016.06
2017-03-06T02:01:58.763Z,1016.02
2017-03-06T02:02:39.383Z,1016.05
2017-03-06T02:03:20.145Z,1016.06
2017-03-06T02:04:00.795Z,1016.07
2017-03-06T02:04:41.427Z,1016.05
2017-03-06T02:05:22.056Z,1016.13
2017-03-06T02:06:02.683Z,1016.1
2017-03-06T02:06:43.317Z,1016.16
2017-03-06T02:07:23.988Z,1016.17
2017-03-06T02:08:04.608Z,1016.12
2017-03-06T02:08:45.242Z,1016.09
2017-03-06T02:09:25.958Z,1016.1
2017-03-06T02:10:06.603Z,1016.12
2017-03-06T02:10:47.224Z,1016.11
2017-03-06T02:11:27.908Z,1016.09
2017-03-06T02:12:08.533Z,1016.12
2017-03-06T02:12:49.160Z,1016.08
2017-03-06T02:13:29.850Z,1016.07
2017-03-06T02:14:10.478Z,1016.08
2017-03-06T02:14:51.111Z,1016.07
2017-03-06T02:15:31.728Z,1016.07
2017-03-06T02:16:12.385Z,1016.07
2017-03-06T02:16:53.019Z,1016.09
2017-03-06T02:17:33.651Z,1016.09
2017-03-06T02:18:14.336Z,1016.08
2017-03-06T02:18:54.954Z,1016.11
2017-03-06T02:19:35.592Z,1016.09
2017-03-06T02:20:16.246Z,1016.12
2017-03-06T02:20:56.883Z,1016.13
2017-03-06T02:21:37.537Z,1016.15
2017-03-06T02:22:18.169Z,1016.16
2017-03-06T02:22:58.791Z,1016.16
2017-03-06T02:23:39.414Z,1016.12
2017-03-06T02:24:20.096Z,1016.11
2017-03-06T02:25:00.733Z,1016.12
2017-03-06T02:25:41.467Z,1016.14
2017-03-06T02:26:22.144Z,1016.17
2017-03-06T02:27:02.777Z,1016.15
2017-03-06T02:27:43.473Z,1016.19
2017-03-06T02:28:24.143Z,1016.21
2017-03-06T02:29:04.809Z,1016.25
2017-03-06T02:29:45.421Z,1016.2
2017-03-06T02:30:26.073Z,1016.23
2017-03-06T02:31:06.696Z,1016.25
2017-03-06T02:31:47.375Z,1016.23
2017-03-06T02:32:28.039Z,1016.24
2017-03-06T02:33:09.187Z,1016.22
2017-03-06T02:33:49.817Z,1016.19
2017-03-06T02:34:30.449Z,1016.23
2017-03-06T02:35:11.143Z,1016.22
2017-03-06T02:35:51.845Z,1016.21
2017-03-06T02:36:32.524Z,1016.23
2017-03-06T02:37:13.161Z,1016.24
2017-03-06T02:37:53.786Z,1016.19
2017-03-06T02:38:34.520Z,1016.21
2017-03-06T02:39:15.163Z,1016.23
2017-03-06T02:39:55.870Z,1016.23
2017-03-06T02:40:36.503Z,1016.23
2017-03-06T02:41:17.151Z,1016.22
2017-03-06T02:41:57.796Z,1016.24
2017-03-06T02:42:38.426Z,1016.26
2017-03-06T02:43:19.054Z,1016.26
2017-03-06T02:43:59.727Z,1016.26
2017-03-06T02:44:40.348Z,1016.24
2017-03-06T02:45:20.977Z,1016.27
2017-03-06T02:46:01.606Z,1016.27
2017-03-06T02:46:42.299Z,1016.25
2017-03-06T02:47:22.929Z,1016.29
2017-03-06T02:48:03.551Z,1016.25
2017-03-06T02:48:44.224Z,1016.23
2017-03-06T02:49:24.857Z,1016.22
2017-03-06T02:50:05.489Z,1016.23
2017-03-06T02:50:46.122Z,1016.21
2017-03-06T02:51:26.746Z,1016.22
2017-03-06T02:52:07.396Z,1016.27
2017-03-06T02:52:48.019Z,1016.23
2017-03-06T02:53:28.641Z,1016.22
2017-03-06T02:54:09.369Z,1016.17
2017-03-06T02:54:49.998Z,1016.18
2017-03-06T02:55:30.627Z,1016.19
2017-03-06T02:56:11.362Z,1016.22
2017-03-06T02:56:52.000Z,1016.19
2017-03-06T02:57:32.748Z,1016.19
2017-03-06T02:58:13.382Z,1016.21
2017-03-06T02:58:54.014Z,1016.18
2017-03-06T02:59:34.646Z,1016.16
2017-03-06T03:00:15.266Z,1016.17
2017-03-06T03:00:55.886Z,1016.16
2017-03-06T03:01:36.536Z,1016.09
2017-03-06T03:02:17.161Z,1016.14
2017-03-06T03:02:57.791Z,1016.14
2017-03-06T03:03:38.438Z,1016.14
2017-03-06T03:04:19.078Z,1016.09
2017-03-06T03:04:59.717Z,1016.11
2017-03-06T03:05:40.350Z,1016.14
2017-03-06T03:06:20.977Z,1016.11
2017-03-06T03:07:01.623Z,1016.12
2017-03-06T03:07:42.242Z,1016.09
2017-03-06T03:08:22.868Z,1016.1
2017-03-06T03:09:03.590Z,1016.1
2017-03-06T03:09:44.213Z,1016.06
2017-03-06T03:10:24.848Z,1016.08
2017-03-06T03:11:05.489Z,1016.05
2017-03-06T03:11:46.131Z,1016.06
2017-03-06T03:12:26.758Z,1016.06
2017-03-06T03:13:07.409Z,1016.07
2017-03-06T03:13:48.041Z,1016.02
2017-03-06T03:14:28.687Z,1016.03
2017-03-06T03:15:09.335Z,1015.98
2017-03-06T03:15:49.976Z,1016.01
2017-03-06T03:16:30.606Z,1016
2017-03-06T03:17:11.235Z,1016.02
2017-03-06T03:17:51.869Z,1016.02
2017-03-06T03:18:32.491Z,1016
2017-03-06T03:19:13.108Z,1015.99
2017-03-06T03:19:53.743Z,1016
2017-03-06T03:20:34.376Z,1016.07
2017-03-06T03:21:15.014Z,1016.07
2017-03-06T03:21:55.667Z,1016.05
2017-03-06T03:22:36.290Z,1016.05
2017-03-06T03:23:16.920Z,1016.06
2017-03-06T03:23:57.550Z,1016.04
2017-03-06T03:24:38.175Z,1016.06
2017-03-06T03:25:18.800Z,1016.05
2017-03-06T03:25:59.459Z,1016.06
2017-03-06T03:26:40.099Z,1016.04
2017-03-06T03:27:20.722Z,1016.06
2017-03-06T03:28:01.359Z,1016.06
2017-03-06T03:28:41.991Z,1016.03
2017-03-06T03:29:22.693Z,1016.05
2017-03-06T03:30:03.355Z,1016.09
2017-03-06T03:30:43.982Z,1016.08
2017-03-06T03:31:24.657Z,1016.07
2017-03-06T03:32:05.352Z,1016.07
2017-03-06T03:32:45.988Z,1016.11
2017-03-06T03:33:26.606Z,1016.1
2017-03-06T03:34:07.237Z,1016.08
2017-03-06T03:34:47.869Z,1016.08
2017-03-06T03:35:28.499Z,1016.11
2017-03-06T03:36:09.125Z,1016.13
2017-03-06T03:36:49.764Z,1016.14
2017-03-06T03:37:30.432Z,1016.09
2017-03-06T03:38:11.073Z,1016.14
2017-03-06T03:38:51.706Z,1016.13
2017-03-06T03:39:32.336Z,1016.13
2017-03-06T03:40:12.970Z,1016.13
2017-03-06T03:40:53.591Z,1016.13
2017-03-06T03:41:34.295Z,1016.08
2017-03-06T03:42:14.929Z,1016.09
2017-03-06T03:42:55.555Z,1016.1
2017-03-06T03:43:36.183Z,1016.07
2017-03-06T03:44:16.805Z,1016.07
2017-03-06T03:44:57.444Z,1016.04
2017-03-06T03:45:38.072Z,1016.07
2017-03-06T03:46:18.723Z,1016.03
2017-03-06T03:46:59.334Z,1016.02
2017-03-06T03:47:39.964Z,1016.04
2017-03-06T03:48:20.604Z,1016.07
2017-03-06T03:49:01.229Z,1016.03
2017-03-06T03:49:41.846Z,1016.04
2017-03-06T03:50:22.485Z,1016.06
2017-03-06T03:51:03.109Z,1016.01
2017-03-06T03:51:43.733Z,1016.02
2017-03-06T03:52:24.360Z,1016
2017-03-06T03:53:05.030Z,1016.01
2017-03-06T03:53:45.671Z,1016
2017-03-06T03:54:26.294Z,1015.99
2017-03-06T03:55:06.911Z,1015.98
2017-03-06T03:55:47.541Z,1015.99
2017-03-06T03:56:28.172Z,1016.07
2017-03-06T03:57:08.827Z,1016.04
2017-03-06T03:57:49.459Z,1016.04
2017-03-06T03:58:30.103Z,1016.01
2017-03-06T03:59:10.821Z,1016.05
2017-03-06T03:59:51.468Z,1016.01
2017-03-06T04:00:32.121Z,1016
2017-03-06T04:01:12.746Z,1016.01
2017-03-06T04:01:53.378Z,1016
2017-03-06T04:02:34.028Z,1016.03
2017-03-06T04:03:14.688Z,1015.99
2017-03-06T04:03:55.318Z,1016
2017-03-06T04:04:35.941Z,1015.99
2017-03-06T04:05:16.588Z,1016.03
2017-03-06T04:05:57.207Z,1016.05
2017-03-06T04:06:37.836Z,1016.05
2017-03-06T04:07:18.468Z,1016.04
2017-03-06T04:07:59.104Z,1016.07
2017-03-06T04:08:39.773Z,1016.09
2017-03-06T04:09:20.352Z,1016.08
2017-03-06T04:10:01.091Z,1016.1
2017-03-06T04:10:41.718Z,1016.06
2017-03-06T04:11:22.347Z,1016.08
2017-03-06T04:12:02.999Z,1016.04
2017-03-06T04:12:43.619Z,1016.06
2017-03-06T04:13:24.249Z,1016.11
2017-03-06T04:14:04.926Z,1016.06
2017-03-06T04:14:45.554Z,1016.08
2017-03-06T04:15:26.188Z,1016.06
2017-03-06T04:16:06.856Z,1016.11
2017-03-06T04:16:47.487Z,1016.09
2017-03-06T04:17:28.112Z,1016.11
2017-03-06T04:18:08.784Z,1016.06
2017-03-06T04:18:49.411Z,1016.07
2017-03-06T04:19:30.039Z,1016.08
2017-03-06T04:20:10.708Z,1016.07
2017-03-06T04:20:51.336Z,1016.12
2017-03-06T04:21:31.965Z,1016.08
2017-03-06T04:22:12.598Z,1016.07
2017-03-06T04:22:53.261Z,1016.08
2017-03-06T04:23:33.915Z,1016.07
2017-03-06T04:24:14.533Z,1016.04
2017-03-06T04:24:55.158Z,1016.09
2017-03-06T04:25:35.795Z,1016.1
2017-03-06T04:26:16.426Z,1016.05
2017-03-06T04:26:57.045Z,1016.08
2017-03-06T04:27:37.682Z,1016.07
2017-03-06T04:28:18.308Z,1016.11
2017-03-06T04:28:58.969Z,1016.09
2017-03-06T04:29:39.588Z,1016.17
2017-03-06T04:30:20.225Z,1016.13
2017-03-06T04:31:00.841Z,1016.1
2017-03-06T04:31:41.470Z,1016.13
2017-03-06T04:32:22.164Z,1016.13
2017-03-06T04:33:02.785Z,1016.14
2017-03-06T04:33:43.434Z,1016.14
2017-03-06T04:34:24.104Z,1016.13
2017-03-06T04:35:04.739Z,1016.14
2017-03-06T04:35:45.366Z,1016.14
2017-03-06T04:36:26.044Z,1016.18
2017-03-06T04:37:06.678Z,1016.17
2017-03-06T04:37:47.327Z,1016.14
2017-03-06T04:38:27.952Z,1016.15
2017-03-06T04:39:08.586Z,1016.13
2017-03-06T04:39:49.208Z,1016.14
2017-03-06T04:40:29.834Z,1016.13
2017-03-06T04:41:10.464Z,1016.14
2017-03-06T04:41:51.082Z,1016.12
2017-03-06T04:42:31.718Z,1016.08
2017-03-06T04:43:12.342Z,1016.15
2017-03-06T04:43:52.973Z,1016.17
2017-03-06T04:44:33.625Z,1016.16
2017-03-06T04:45:14.245Z,1016.16
2017-03-06T04:45:54.883Z,1016.16
2017-03-06T04:46:35.505Z,1016.13
2017-03-06T04:47:16.145Z,1016.15
2017-03-06T04:47:56.783Z,1016.16
2017-03-06T04:48:37.407Z,1016.15
2017-03-06T04:49:18.029Z,1016.2
2017-03-06T04:49:58.660Z,1016.17
2017-03-06T04:50:39.285Z,1016.18
2017-03-06T04:51:19.918Z,1016.16
2017-03-06T04:52:00.558Z,1016.13
2017-03-06T04:52:41.191Z,1016.13
2017-03-06T04:53:21.816Z,1016.12
2017-03-06T04:54:02.463Z,1016.14
2017-03-06T04:54:43.079Z,1016.17
2017-03-06T04:55:23.726Z,1016.11
2017-03-06T04:56:04.403Z,1016.16
2017-03-06T04:56:45.033Z,1016.11
2017-03-06T04:57:25.693Z,1016.13
2017-03-06T04:58:06.371Z,1016.14
2017-03-06T04:58:46.998Z,1016.15
2017-03-06T04:59:27.703Z,1016.14
2017-03-06T05:00:08.299Z,1016.12
2017-03-06T05:00:48.915Z,1016.18
2017-03-06T05:01:29.556Z,1016.15
2017-03-06T05:02:10.180Z,1016.17
2017-03-06T05:02:50.812Z,1016.19
2017-03-06T05:03:31.436Z,1016.18
2017-03-06T05:04:12.061Z,1016.23
2017-03-06T05:04:52.691Z,1016.19
2017-03-06T05:05:33.324Z,1016.25
2017-03-06T05:06:14.002Z,1016.28
2017-03-06T05:06:54.647Z,1016.31
2017-03-06T05:07:35.270Z,1016.34
2017-03-06T05:08:15.921Z,1016.31
2017-03-06T05:08:56.582Z,1016.32
2017-03-06T05:09:37.235Z,1016.32
2017-03-06T05:10:17.864Z,1016.33
2017-03-06T05:10:58.499Z,1016.35
2017-03-06T05:11:39.152Z,1016.31
2017-03-06T05:12:19.771Z,1016.3
2017-03-06T05:13:00.442Z,1016.29
2017-03-06T05:13:41.082Z,1016.33
2017-03-06T05:14:21.713Z,1016.31
2017-03-06T05:15:02.340Z,1016.36
2017-03-06T05:15:42.975Z,1016.35
2017-03-06T05:16:23.589Z,1016.36
2017-03-06T05:17:04.226Z,1016.39
2017-03-06T05:17:44.854Z,1016.35
2017-03-06T05:18:25.484Z,1016.39
2017-03-06T05:19:06.121Z,1016.44
2017-03-06T05:19:46.753Z,1016.43
2017-03-06T05:20:27.382Z,1016.44
2017-03-06T05:21:08.031Z,1016.46
2017-03-06T05:21:48.680Z,1016.48
2017-03-06T05:22:29.310Z,1016.47
2017-03-06T05:23:09.943Z,1016.54
2017-03-06T05:23:50.574Z,1016.53
2017-03-06T05:24:31.211Z,1016.49
2017-03-06T05:25:11.852Z,1016.52
2017-03-06T05:25:52.498Z,1016.51
2017-03-06T05:26:33.159Z,1016.51
2017-03-06T05:27:13.804Z,1016.51
2017-03-06T05:27:54.444Z,1016.52
2017-03-06T05:28:35.069Z,1016.49
2017-03-06T05:29:15.702Z,1016.52
2017-03-06T05:29:56.318Z,1016.54
2017-03-06T05:30:36.990Z,1016.49
2017-03-06T05:31:17.626Z,1016.51
2017-03-06T05:31:58.273Z,1016.51
2017-03-06T05:32:38.915Z,1016.49
2017-03-06T05:33:19.611Z,1016.47
2017-03-06T05:34:00.229Z,1016.53
2017-03-06T05:34:40.849Z,1016.52
2017-03-06T05:35:21.508Z,1016.53
2017-03-06T05:36:02.130Z,1016.52
2017-03-06T05:36:42.751Z,1016.51
2017-03-06T05:37:23.387Z,1016.58
2017-03-06T05:38:04.011Z,1016.53
2017-03-06T05:38:44.641Z,1016.52
2017-03-06T05:39:25.257Z,1016.55
2017-03-06T05:40:05.886Z,1016.5
2017-03-06T05:40:46.515Z,1016.52
2017-03-06T05:41:27.139Z,1016.51
2017-03-06T05:42:07.785Z,1016.54
2017-03-06T05:42:48.456Z,1016.59
2017-03-06T05:43:29.076Z,1016.56
2017-03-06T05:44:09.710Z,1016.57
2017-03-06T05:44:50.410Z,1016.59
2017-03-06T05:45:31.032Z,1016.61
2017-03-06T05:46:11.681Z,1016.57
2017-03-06T05:46:52.393Z,1016.57
2017-03-06T05:47:33.030Z,1016.59
2017-03-06T05:48:13.666Z,1016.62
2017-03-06T05:48:54.351Z,1016.63
2017-03-06T05:49:34.973Z,1016.62
2017-03-06T05:50:15.613Z,1016.67
2017-03-06T05:50:56.250Z,1016.69
2017-03-06T05:51:36.864Z,1016.65
2017-03-06T05:52:17.492Z,1016.67
2017-03-06T05:52:58.112Z,1016.68
2017-03-06T05:53:38.737Z,1016.69
2017-03-06T05:54:19.367Z,1016.73
2017-03-06T05:55:00.020Z,1016.73
2017-03-06T05:55:40.654Z,1016.73
2017-03-06T05:56:21.286Z,1016.74
2017-03-06T05:57:01.979Z,1016.72
2017-03-06T05:57:42.624Z,1016.72
2017-03-06T05:58:23.287Z,1016.74
2017-03-06T05:59:03.885Z,1016.75
2017-03-06T05:59:44.523Z,1016.73
2017-03-06T06:00:25.142Z,1016.8
2017-03-06T06:01:05.777Z,1016.8
2017-03-06T06:01:46.397Z,1016.78
2017-03-06T06:02:27.041Z,1016.82
2017-03-06T06:03:07.684Z,1016.81
2017-03-06T06:03:48.316Z,1016.77
2017-03-06T06:04:28.951Z,1016.8
2017-03-06T06:05:09.583Z,1016.84
2017-03-06T06:05:50.255Z,1016.77
2017-03-06T06:06:30.886Z,1016.79
2017-03-06T06:07:11.520Z,1016.79
2017-03-06T06:07:52.154Z,1016.83
2017-03-06T06:08:32.775Z,1016.82
2017-03-06T06:09:13.477Z,1016.85
2017-03-06T06:09:54.123Z,1016.84
2017-03-06T06:10:34.761Z,1016.84
2017-03-06T06:11:15.393Z,1016.89
2017-03-06T06:11:56.038Z,1016.86
2017-03-06T06:12:36.717Z,1016.89
2017-03-06T06:13:17.308Z,1016.88
2017-03-06T06:13:57.948Z,1016.87
2017-03-06T06:14:38.574Z,1016.91
2017-03-06T06:15:19.205Z,1016.92
2017-03-06T06:15:59.887Z,1016.91
2017-03-06T06:16:40.518Z,1016.87
2017-03-06T06:17:21.149Z,1016.89
2017-03-06T06:18:01.920Z,1016.89
2017-03-06T06:18:42.561Z,1016.89
2017-03-06T06:19:23.192Z,1016.9
2017-03-06T06:20:03.853Z,1016.92
2017-03-06T06:20:44.475Z,1016.95
2017-03-06T06:21:25.114Z,1016.94
2017-03-06T06:22:05.757Z,1016.93
2017-03-06T06:22:46.395Z,1016.93
2017-03-06T06:23:27.024Z,1016.97
2017-03-06T06:24:07.662Z,1017
2017-03-06T06:24:48.315Z,1016.93
2017-03-06T06:25:28.937Z,1016.9
2017-03-06T06:26:09.580Z,1016.89
2017-03-06T06:26:50.203Z,1016.91
2017-03-06T06:27:30.845Z,1016.93
2017-03-06T06:28:11.495Z,1016.9
2017-03-06T06:28:52.129Z,1016.95
2017-03-06T06:29:32.755Z,1016.96
2017-03-06T06:30:13.391Z,1016.92
2017-03-06T06:30:54.041Z,1016.95
2017-03-06T06:31:34.667Z,1016.94
2017-03-06T06:32:15.290Z,1016.95
2017-03-06T06:32:55.918Z,1016.98
2017-03-06T06:33:36.536Z,1016.99
2017-03-06T06:34:17.170Z,1016.95
2017-03-06T06:34:57.802Z,1016.95
2017-03-06T06:35:38.433Z,1016.94
2017-03-06T06:36:19.086Z,1017
2017-03-06T06:36:59.739Z,1016.98
2017-03-06T06:37:40.394Z,1016.99
2017-03-06T06:38:21.043Z,1016.97
2017-03-06T06:39:01.717Z,1016.97
2017-03-06T06:39:42.334Z,1017.01
2017-03-06T06:40:22.964Z,1016.98
2017-03-06T06:41:03.590Z,1017
2017-03-06T06:41:44.228Z,1017.02
2017-03-06T06:42:24.876Z,1016.98
2017-03-06T06:43:05.519Z,1017.03
2017-03-06T06:43:46.149Z,1017.06
2017-03-06T06:44:26.779Z,1017.05
2017-03-06T06:45:07.526Z,1017.05
2017-03-06T06:45:48.177Z,1017.12
2017-03-06T06:46:28.804Z,1017.07
2017-03-06T06:47:09.432Z,1017.06
2017-03-06T06:47:50.078Z,1017.06
2017-03-06T06:48:30.695Z,1017.03
2017-03-06T06:49:11.315Z,1017.04
2017-03-06T06:49:51.942Z,1017.07
2017-03-06T06:50:32.578Z,1017.12
2017-03-06T06:51:13.209Z,1017.11
2017-03-06T06:51:53.835Z,1017.11
2017-03-06T06:52:34.470Z,1017.11
2017-03-06T06:53:15.098Z,1017.09
2017-03-06T06:53:55.743Z,1017.11
2017-03-06T06:54:36.428Z,1017.12
2017-03-06T06:55:17.056Z,1017.11
2017-03-06T06:55:57.691Z,1017.13
2017-03-06T06:56:38.365Z,1017.09
2017-03-06T06:57:19.000Z,1017.07
2017-03-06T06:57:59.624Z,1017.05
2017-03-06T06:58:40.302Z,1017.06
2017-03-06T06:59:20.938Z,1017.1
2017-03-06T07:00:01.561Z,1017.08
2017-03-06T07:00:42.180Z,1017.12
2017-03-06T07:01:22.827Z,1017.1
2017-03-06T07:02:03.473Z,1017.14
2017-03-06T07:02:44.120Z,1017.13
2017-03-06T07:03:24.752Z,1017.12
2017-03-06T07:04:05.399Z,1017.09
2017-03-06T07:04:46.164Z,1017.14
2017-03-06T07:05:26.831Z,1017.13
2017-03-06T07:06:07.463Z,1017.14
2017-03-06T07:06:48.800Z,1017.09
2017-03-06T07:07:29.515Z,1017.14
2017-03-06T07:08:10.144Z,1017.19
2017-03-06T07:08:50.767Z,1017.17
2017-03-06T07:09:31.492Z,1017.23
2017-03-06T07:10:12.139Z,1017.23
2017-03-06T07:10:52.779Z,1017.23
2017-03-06T07:11:33.427Z,1017.23
2017-03-06T07:12:14.046Z,1017.2
2017-03-06T07:12:54.681Z,1017.25
2017-03-06T07:13:35.311Z,1017.28
2017-03-06T07:14:15.946Z,1017.27
2017-03-06T07:14:56.615Z,1017.3
2017-03-06T07:15:37.254Z,1017.34
2017-03-06T07:16:17.873Z,1017.37
2017-03-06T07:16:58.509Z,1017.34
2017-03-06T07:17:39.152Z,1017.38
2017-03-06T07:18:19.797Z,1017.4
2017-03-06T07:19:00.417Z,1017.35
2017-03-06T07:19:41.065Z,1017.35
2017-03-06T07:20:21.693Z,1017.37
2017-03-06T07:21:02.337Z,1017.36
2017-03-06T07:21:42.966Z,1017.37
2017-03-06T07:22:23.588Z,1017.34
2017-03-06T07:23:04.219Z,1017.34
2017-03-06T07:23:44.854Z,1017.36
2017-03-06T07:24:25.479Z,1017.33
2017-03-06T07:25:06.205Z,1017.32
2017-03-06T07:25:46.859Z,1017.32
2017-03-06T07:26:27.504Z,1017.36
2017-03-06T07:27:08.164Z,1017.35
2017-03-06T07:27:48.788Z,1017.36
2017-03-06T07:28:29.425Z,1017.4
2017-03-06T07:29:10.065Z,1017.36
2017-03-06T07:29:50.696Z,1017.38
2017-03-06T07:30:31.327Z,1017.38
2017-03-06T07:31:11.978Z,1017.4
2017-03-06T07:31:52.609Z,1017.43
2017-03-06T07:32:33.242Z,1017.41
2017-03-06T07:33:13.875Z,1017.43
2017-03-06T07:33:54.518Z,1017.43
2017-03-06T07:34:35.169Z,1017.46
2017-03-06T07:35:15.798Z,1017.41
2017-03-06T07:35:56.425Z,1017.44
2017-03-06T07:36:37.051Z,1017.45
2017-03-06T07:37:17.713Z,1017.44
2017-03-06T07:37:58.396Z,1017.45
2017-03-06T07:38:39.054Z,1017.47
2017-03-06T07:39:19.690Z,1017.5
2017-03-06T07:40:00.441Z,1017.48
2017-03-06T07:40:41.081Z,1017.48
2017-03-06T07:41:21.707Z,1017.5
2017-03-06T07:42:02.345Z,1017.51
2017-03-06T07:42:42.974Z,1017.5
2017-03-06T07:43:23.615Z,1017.55
2017-03-06T07:44:04.247Z,1017.57
2017-03-06T07:44:44.879Z,1017.59
2017-03-06T07:45:25.522Z,1017.62
2017-03-06T07:46:06.174Z,1017.63
2017-03-06T07:46:46.796Z,1017.61
2017-03-06T07:47:27.439Z,1017.63
2017-03-06T07:48:08.059Z,1017.63
2017-03-06T07:48:48.691Z,1017.66
2017-03-06T07:49:29.415Z,1017.66
2017-03-06T07:50:10.042Z,1017.65
2017-03-06T07:50:50.673Z,1017.72
2017-03-06T07:51:31.363Z,1017.72
2017-03-06T07:52:12.043Z,1017.74
2017-03-06T07:52:52.670Z,1017.73
2017-03-06T07:53:33.306Z,1017.74
2017-03-06T07:54:13.978Z,1017.76
2017-03-06T07:54:54.613Z,1017.75
2017-03-06T07:55:35.236Z,1017.77
2017-03-06T07:56:15.904Z,1017.76
2017-03-06T07:56:56.547Z,1017.82
2017-03-06T07:57:37.168Z,1017.84
2017-03-06T07:58:17.792Z,1017.79
2017-03-06T07:58:58.428Z,1017.84
2017-03-06T07:59:39.056Z,1017.86
2017-03-06T08:00:19.688Z,1017.87
2017-03-06T08:01:00.323Z,1017.89
2017-03-06T08:01:40.961Z,1017.92
2017-03-06T08:02:21.589Z,1017.9
2017-03-06T08:03:02.214Z,1017.94
2017-03-06T08:03:42.840Z,1017.97
2017-03-06T08:04:23.466Z,1017.97
2017-03-06T08:05:04.118Z,1017.98
2017-03-06T08:05:44.726Z,1018.01
2017-03-06T08:06:25.357Z,1018.02
2017-03-06T08:07:06.004Z,1018
2017-03-06T08:07:46.632Z,1018.06
2017-03-06T08:08:27.259Z,1018.05
2017-03-06T08:09:07.885Z,1018.07
2017-03-06T08:09:48.527Z,1018.02
2017-03-06T08:10:29.214Z,1018.07
2017-03-06T08:11:09.856Z,1018
2017-03-06T08:11:50.487Z,1018.02
2017-03-06T08:12:31.127Z,1018.02
2017-03-06T08:13:11.777Z,1018.04
2017-03-06T08:13:52.400Z,1018.03
2017-03-06T08:14:33.049Z,1018.03
2017-03-06T08:15:13.714Z,1018.01